Terminal Aerodrome Forecast
Issued by NWS Amarillo, TX

Home | Current Version | Previous Version | Text Only | Print | Product List | Glossary On
Versions: 1 2 3 4 5 6 7 8 9 10 11 12 13 14 15 16 17 18 19
626
FTUS44 KAMA 211120
TAFAMA
TAF
KAMA 211120Z 2112/2212 20011KT P6SM SCT060 BKN100
      TEMPO 2112/2116 OVC060
     FM211700 23016G26KT P6SM SCT015 OVC060
      TEMPO 2121/2201 4SM -SHRA BR BKN040
     FM220200 31022G34KT P6SM OVC060=

USA.gov is the U.S. government's official web portal to all federal, state and local government web resources and services.